Gilze-Rijen, Netherlands

3:47 AM CEST on May 25, 2017 (GMT +0200)
Gilze-Rijen Air Base

Weather History for EHGR - January, 2013

Change the Weather History Date:

Saturday, January 5, 2013

  Actual Average Record
Temperature  
Mean Temperature 46 °F -  
Max Temperature 48 °F 41 °F 57 °F (1999)
Min Temperature 44 °F 31 °F 17 °F (2003)
Degree Days  
Heating Degree Days 19    
Moisture  
Dew Point 46 °F    
Average Humidity 99    
Maximum Humidity 100    
Minimum Humidity 93    
Precipitation  
Precipitation 0.00 in - - ()
Sea Level Pressure  
Sea Level Pressure 30.53 in    
Wind  
Wind Speed 5 mph ()    
Max Wind Speed 12 mph    
Max Gust Speed -    
Visibility 2.8 miles    
Events Rain    
Averages and records for this station are not official NWS values.
T = Trace of Precipitation, MM = Missing Value Source: Averaged Metar Reports

Daily Weather History Graph

Daily Weather History Graph

Search for Another Location

Airport or City:

Trip Planner

Search our weather history database for the weather conditions in past years. The results will help you decide how hot, cold, wet, or windy it might be!

Date:

Astronomy

Jan. 05, 2013 Rise Set
Actual Time 8:45 AM CET 4:46 PM CET
Civil Twilight 8:05 AM CET 5:26 PM CET
Nautical Twilight 7:22 AM CET 6:08 PM CET
Astronomical Twilight 6:42 AM CET 6:49 PM CET
Moon 1:06 AM CET (1/5) 11:51 AM CET (1/5)
Length of Visible Light 9h 20m
Length of Day
8h 01m
Waning Gibbous, 47% of the Moon is Illuminated
Jan 5
Waning Gibbous
Jan 11
New
Jan 19
First Quarter
Jan 27
Full
Feb 3
Last Quarter

Hourly Weather History & Observations

Time (CET) Temp. Windchill Dew Point Humidity Pressure Visibility Wind Dir Wind Speed Gust Speed Precip Events Conditions
12:05 AM 46.4 °F 41.5 °F 46.4 °F 100% 30.54 in 4.3 mi WNW 10.4 mph - N/A   Overcast
12:25 AM 46.4 °F 42.4 °F 46.4 °F 100% 30.54 in 3.7 mi WNW 8.1 mph - N/A   Overcast
12:55 AM 46.4 °F 42.9 °F 46.4 °F 100% 30.54 in 3.7 mi West 6.9 mph - N/A   Overcast
1:21 AM 46.4 °F 44.3 °F 46.4 °F 100% 30.54 in - West 4.6 mph - N/A   Mostly Cloudy
1:25 AM 46.4 °F 44.3 °F 46.4 °F 100% 30.54 in 2.8 mi West 4.6 mph - N/A   Mostly Cloudy
1:29 AM 46.4 °F 45.2 °F 46.4 °F 100% 30.54 in 2.2 mi West 3.5 mph - N/A   Overcast
1:33 AM 46.4 °F 45.2 °F 46.4 °F 100% 30.54 in 2.5 mi West 3.5 mph - N/A   Overcast
1:37 AM 46.4 °F - 46.4 °F 100% 30.54 in 2.2 mi West 2.3 mph - N/A   Overcast
1:49 AM 46.4 °F - 46.4 °F 100% 30.54 in - SW 2.3 mph - N/A   Overcast
1:55 AM 46.4 °F 45.2 °F 46.4 °F 100% 30.54 in - WSW 3.5 mph - N/A   Overcast
2:03 AM 46.4 °F 45.2 °F 46.4 °F 100% 30.54 in - WSW 3.5 mph - N/A   Overcast
2:08 AM 46.4 °F 44.3 °F 46.4 °F 100% 30.54 in 2.2 mi WSW 4.6 mph - N/A   Mostly Cloudy
2:13 AM 46.4 °F 44.3 °F 46.4 °F 100% 30.54 in 2.5 mi West 4.6 mph - N/A   Mostly Cloudy
2:25 AM 46.4 °F 44.3 °F 46.4 °F 100% 30.54 in - West 4.6 mph - N/A   Overcast
2:55 AM 46.4 °F 44.3 °F 46.4 °F 100% 30.54 in - WSW 4.6 mph - N/A   Overcast
3:13 AM 46.4 °F 44.3 °F 46.4 °F 100% 30.54 in - West 4.6 mph - N/A   Overcast
3:19 AM 46.4 °F 44.3 °F 46.4 °F 100% 30.54 in 2.5 mi West 4.6 mph - N/A   Overcast
3:25 AM 46.4 °F 44.3 °F 46.4 °F 100% 30.54 in 2.5 mi West 4.6 mph - N/A   Overcast
3:38 AM 46.4 °F 44.3 °F 46.4 °F 100% 30.54 in - West 4.6 mph - N/A   Overcast
3:49 AM 46.4 °F 44.3 °F 46.4 °F 100% 30.54 in 3.1 mi West 4.6 mph - N/A   Overcast
3:55 AM 46.4 °F 45.2 °F 46.4 °F 100% 30.54 in - West 3.5 mph - N/A   Overcast
3:59 AM 46.4 °F 45.2 °F 46.4 °F 100% 30.54 in 3.1 mi West 3.5 mph - N/A   Overcast
4:03 AM 46.4 °F 44.3 °F 46.4 °F 100% 30.54 in 3.1 mi West 4.6 mph - N/A   Overcast
4:16 AM 46.4 °F 45.2 °F 46.4 °F 100% 30.54 in 3.1 mi WSW 3.5 mph - N/A   Mostly Cloudy
4:25 AM 46.4 °F 44.3 °F 46.4 °F 100% 30.54 in 3.1 mi West 4.6 mph - N/A   Overcast
4:38 AM 46.4 °F 44.3 °F 46.4 °F 100% 30.54 in 3.1 mi West 4.6 mph - N/A   Overcast
4:55 AM 46.4 °F 44.3 °F 46.4 °F 100% 30.54 in 3.7 mi West 4.6 mph - N/A   Overcast
5:25 AM 46.4 °F 43.5 °F 46.4 °F 100% 30.54 in 4.3 mi West 5.8 mph - N/A   Overcast
5:55 AM 46.4 °F 45.2 °F 46.4 °F 100% 30.54 in 3.7 mi West 3.5 mph - N/A   Overcast
6:25 AM 46.4 °F 45.2 °F 46.4 °F 100% 30.54 in 3.1 mi West 3.5 mph - N/A   Overcast
6:30 AM 46.4 °F 45.2 °F 46.4 °F 100% 30.54 in - WSW 3.5 mph - N/A   Overcast
6:43 AM 46.4 °F 44.3 °F 46.4 °F 100% 30.54 in - West 4.6 mph - N/A   Overcast
6:55 AM 46.4 °F 45.2 °F 46.4 °F 100% 30.54 in - West 3.5 mph - N/A   Overcast
6:56 AM 46.4 °F 45.2 °F 46.4 °F 100% 30.54 in 3.1 mi West 3.5 mph - N/A   Overcast
7:03 AM 46.4 °F 45.2 °F 46.4 °F 100% 30.54 in - West 3.5 mph - N/A   Overcast
7:10 AM 46.4 °F 44.3 °F 46.4 °F 100% 30.54 in 3.1 mi West 4.6 mph - N/A   Overcast
7:11 AM 46.4 °F 44.3 °F 46.4 °F 100% 30.54 in - West 4.6 mph - N/A   Overcast
7:25 AM 46.4 °F 44.3 °F 46.4 °F 100% 30.54 in - West 4.6 mph - N/A   Overcast
7:55 AM 46.4 °F 44.3 °F 46.4 °F 100% 30.54 in - West 4.6 mph - N/A   Overcast
7:59 AM 46.4 °F 44.3 °F 46.4 °F 100% 30.54 in 3.1 mi West 4.6 mph - N/A   Overcast
8:25 AM 46.4 °F 44.3 °F 46.4 °F 100% 30.54 in - West 4.6 mph - N/A   Overcast
8:33 AM 46.4 °F 44.3 °F 46.4 °F 100% 30.54 in 3.1 mi West 4.6 mph - N/A   Overcast
8:37 AM 46.4 °F 44.3 °F 46.4 °F 100% 30.54 in 3.1 mi West 4.6 mph - N/A   Overcast
8:50 AM 46.4 °F 44.3 °F 46.4 °F 100% 30.54 in 3.1 mi West 4.6 mph - N/A   Overcast
8:55 AM 46.4 °F 44.3 °F 46.4 °F 100% 30.54 in 3.1 mi West 4.6 mph - N/A   Overcast
9:16 AM 46.4 °F 44.3 °F 46.4 °F 100% 30.54 in - West 4.6 mph - N/A   Overcast
9:25 AM 46.4 °F 44.3 °F 46.4 °F 100% 30.54 in - West 4.6 mph - N/A   Overcast
9:55 AM 46.4 °F 43.5 °F 46.4 °F 100% 30.54 in - West 5.8 mph - N/A   Overcast
10:25 AM 48.2 °F - 46.4 °F 93% 30.54 in 3.1 mi West 8.1 mph - N/A   Overcast
10:42 AM 48.2 °F - 46.4 °F 93% 30.54 in - West 6.9 mph - N/A   Overcast
10:55 AM 46.4 °F 43.5 °F 46.4 °F 100% 30.54 in 1.9 mi West 5.8 mph - N/A   Overcast
11:25 AM 46.4 °F 42.4 °F 46.4 °F 100% 30.57 in 2.2 mi West 8.1 mph - N/A   Overcast
11:33 AM 46.4 °F 41.9 °F 46.4 °F 100% 30.57 in - West 9.2 mph - N/A   Overcast
11:37 AM 46.4 °F 42.4 °F 46.4 °F 100% 30.57 in - West 8.1 mph - N/A   Overcast
11:48 AM 46.4 °F 41.9 °F 46.4 °F 100% 30.57 in - West 9.2 mph - N/A   Overcast
11:55 AM 46.4 °F 42.4 °F 46.4 °F 100% 30.57 in - West 8.1 mph - N/A   Mostly Cloudy
11:59 AM 46.4 °F 42.9 °F 46.4 °F 100% 30.57 in 2.8 mi West 6.9 mph - N/A   Overcast
12:06 PM 46.4 °F 42.9 °F 46.4 °F 100% 30.57 in - West 6.9 mph - N/A   Mostly Cloudy
12:13 PM 46.4 °F 42.9 °F 46.4 °F 100% 30.57 in - West 6.9 mph - N/A   Mostly Cloudy
12:25 PM 46.4 °F 42.9 °F 46.4 °F 100% 30.57 in - WNW 6.9 mph - N/A   Mostly Cloudy
12:55 PM 46.4 °F 42.4 °F 46.4 °F 100% 30.54 in 1.8 mi WNW 8.1 mph - N/A   Drizzle
1:21 PM 46.4 °F 42.9 °F 46.4 °F 100% 30.54 in 2.5 mi West 6.9 mph - N/A Rain Light Rain
1:25 PM 46.4 °F 42.4 °F 46.4 °F 100% 30.54 in 3.1 mi West 8.1 mph - N/A   Drizzle
1:38 PM 46.4 °F 41.1 °F 46.4 °F 100% 30.54 in 3.7 mi WNW 11.5 mph - N/A   Overcast
1:50 PM 46.4 °F 41.5 °F 46.4 °F 100% 30.54 in - WNW 10.4 mph - N/A   Overcast
1:55 PM 46.4 °F 42.4 °F 46.4 °F 100% 30.54 in - West 8.1 mph - N/A   Overcast
2:09 PM 46.4 °F 41.5 °F 46.4 °F 100% 30.54 in 2.2 mi WNW 10.4 mph - N/A   Overcast
2:25 PM 46.4 °F 44.3 °F 46.4 °F 100% 30.54 in 2.5 mi West 4.6 mph - N/A   Overcast
2:42 PM 46.4 °F 42.9 °F 46.4 °F 100% 30.54 in 2.5 mi West 6.9 mph - N/A   Overcast
2:55 PM 46.4 °F 42.4 °F 46.4 °F 100% 30.54 in 3.1 mi West 8.1 mph - N/A   Overcast
2:59 PM 46.4 °F 42.4 °F 46.4 °F 100% 30.54 in - West 8.1 mph - N/A   Overcast
3:01 PM 46.4 °F 42.9 °F 46.4 °F 100% 30.54 in - West 6.9 mph - N/A   Overcast
3:07 PM 46.4 °F 43.5 °F 46.4 °F 100% 30.54 in - West 5.8 mph - N/A Rain Light Rain
3:20 PM 46.4 °F 44.3 °F 46.4 °F 100% 30.54 in - West 4.6 mph - N/A   Overcast
3:25 PM 46.4 °F 42.9 °F 46.4 °F 100% 30.54 in - West 6.9 mph - N/A   Mostly Cloudy
3:29 PM 46.4 °F 42.4 °F 46.4 °F 100% 30.54 in - West 8.1 mph - N/A   Mostly Cloudy
3:41 PM 46.4 °F 42.9 °F 46.4 °F 100% 30.54 in 3.7 mi West 6.9 mph - N/A   Overcast
3:55 PM 46.4 °F 43.5 °F 46.4 °F 100% 30.54 in 3.7 mi West 5.8 mph - N/A   Overcast
4:01 PM 46.4 °F 43.5 °F 46.4 °F 100% 30.54 in - West 5.8 mph - N/A   Mostly Cloudy
4:05 PM 46.4 °F 43.5 °F 46.4 °F 100% 30.54 in - West 5.8 mph - N/A   Overcast
4:18 PM 46.4 °F 43.5 °F 46.4 °F 100% 30.54 in 3.7 mi West 5.8 mph - N/A   Overcast
4:25 PM 46.4 °F 43.5 °F 46.4 °F 100% 30.54 in 3.1 mi West 5.8 mph - N/A   Mostly Cloudy
4:29 PM 46.4 °F 43.5 °F 46.4 °F 100% 30.54 in - West 5.8 mph - N/A   Overcast
4:35 PM 46.4 °F 43.5 °F 44.6 °F 93% 30.54 in - West 5.8 mph - N/A   Mostly Cloudy
4:55 PM 46.4 °F 44.3 °F 44.6 °F 93% 30.54 in - WSW 4.6 mph - N/A   Mostly Cloudy
4:59 PM 46.4 °F 43.5 °F 44.6 °F 93% 30.54 in - WSW 5.8 mph - N/A   Overcast
5:12 PM 46.4 °F 44.3 °F 44.6 °F 93% 30.51 in - WSW 4.6 mph - N/A   Overcast
5:25 PM 46.4 °F 44.3 °F 44.6 °F 93% 30.51 in - WSW 4.6 mph - N/A   Mostly Cloudy
5:30 PM 46.4 °F 44.3 °F 44.6 °F 93% 30.51 in - WSW 4.6 mph - N/A   Mostly Cloudy
5:55 PM 44.6 °F 43.1 °F 44.6 °F 100% 30.54 in - WSW 3.5 mph - N/A Rain Light Rain
6:11 PM 46.4 °F 44.3 °F 44.6 °F 93% 30.51 in - West 4.6 mph - N/A   Light Drizzle
6:25 PM 44.6 °F 43.1 °F 44.6 °F 100% 30.51 in 3.1 mi West 3.5 mph - N/A   Overcast
6:31 PM 44.6 °F 43.1 °F 44.6 °F 100% 30.51 in - West 3.5 mph - N/A   Overcast
6:47 PM 44.6 °F 43.1 °F 44.6 °F 100% 30.51 in - West 3.5 mph - N/A   Overcast
6:48 PM 44.6 °F 43.1 °F 44.6 °F 100% 30.51 in - WSW 3.5 mph - N/A   Overcast
6:55 PM 44.6 °F - 44.6 °F 100% 30.51 in 3.1 mi WSW 2.3 mph - N/A   Mostly Cloudy
7:01 PM 44.6 °F - 44.6 °F 100% 30.51 in 3.1 mi WSW 2.3 mph - N/A   Overcast
7:12 PM 44.6 °F 43.1 °F 44.6 °F 100% 30.51 in - WSW 3.5 mph - N/A   Overcast
7:25 PM 44.6 °F - 44.6 °F 100% 30.51 in 1.8 mi WSW 2.3 mph - N/A   Mostly Cloudy
7:44 PM 44.6 °F 43.1 °F 44.6 °F 100% 30.51 in 1.7 mi SSW 3.5 mph - N/A   Mostly Cloudy
7:49 PM 44.6 °F 42.2 °F 44.6 °F 100% 30.51 in 1.8 mi SW 4.6 mph - N/A   Mostly Cloudy
7:55 PM 44.6 °F 41.4 °F 44.6 °F 100% 30.51 in - WSW 5.8 mph - N/A   Mostly Cloudy
8:25 PM 44.6 °F 43.1 °F 44.6 °F 100% 30.51 in - SW 3.5 mph - N/A   Mostly Cloudy
8:49 PM 44.6 °F 42.2 °F 44.6 °F 100% 30.51 in 3.1 mi WSW 4.6 mph - N/A   Overcast
8:55 PM 44.6 °F 42.2 °F 44.6 °F 100% 30.51 in - SW 4.6 mph - N/A   Overcast
9:25 PM 44.6 °F 43.1 °F 44.6 °F 100% 30.51 in 3.1 mi WSW 3.5 mph - N/A   Overcast
9:32 PM 44.6 °F 42.2 °F 44.6 °F 100% 30.51 in - WSW 4.6 mph - N/A   Overcast
9:50 PM 44.6 °F 42.2 °F 44.6 °F 100% 30.51 in 2.2 mi WSW 4.6 mph - N/A   Overcast
9:55 PM 44.6 °F 43.1 °F 44.6 °F 100% 30.51 in 2.5 mi WSW 3.5 mph - N/A   Overcast
10:02 PM 44.6 °F 43.1 °F 44.6 °F 100% 30.51 in 2.2 mi WSW 3.5 mph - N/A   Overcast
10:19 PM 44.6 °F 43.1 °F 44.6 °F 100% 30.51 in - SW 3.5 mph - N/A   Overcast
10:25 PM 44.6 °F 43.1 °F 44.6 °F 100% 30.51 in - SW 3.5 mph - N/A   Overcast
10:55 PM 44.6 °F 41.4 °F 44.6 °F 100% 30.51 in 1.6 mi WSW 5.8 mph - N/A   Mostly Cloudy
11:25 PM 44.6 °F 42.2 °F 44.6 °F 100% 30.51 in 1.6 mi SW 4.6 mph - N/A   Overcast
11:37 PM 44.6 °F 42.2 °F 44.6 °F 100% 30.51 in 1.6 mi SW 4.6 mph - N/A   Overcast
11:55 PM 44.6 °F 41.4 °F 44.6 °F 100% 30.48 in 1.5 mi SW 5.8 mph - N/A   Overcast